sensor_id;sensor_type;location;lat;lon;timestamp;pressure;altitude;pressure_sealevel;temperature;humidity
18988;BME280;5494;51.796;10.952;2023-08-20T00:01:31;99412.47;;;23.76;100.00
18988;BME280;5494;51.796;10.952;2023-08-20T00:04:00;99408.50;;;23.80;100.00
18988;BME280;5494;51.796;10.952;2023-08-20T00:06:29;99414.44;;;23.74;100.00
18988;BME280;5494;51.796;10.952;2023-08-20T00:08:58;99411.78;;;23.74;100.00
18988;BME280;5494;51.796;10.952;2023-08-20T00:11:26;99410.84;;;23.66;100.00
18988;BME280;5494;51.796;10.952;2023-08-20T00:13:54;99409.72;;;23.68;100.00
18988;BME280;5494;51.796;10.952;2023-08-20T00:16:25;99419.22;;;23.71;100.00
18988;BME280;5494;51.796;10.952;2023-08-20T00:18:54;99421.47;;;23.66;100.00
18988;BME280;5494;51.796;10.952;2023-08-20T00:21:23;99420.81;;;23.64;100.00
18988;BME280;5494;51.796;10.952;2023-08-20T00:23:52;99427.38;;;23.60;100.00
18988;BME280;5494;51.796;10.952;2023-08-20T00:26:20;99437.34;;;23.58;100.00
18988;BME280;5494;51.796;10.952;2023-08-20T00:28:48;99431.84;;;23.59;100.00
18988;BME280;5494;51.796;10.952;2023-08-20T00:31:17;99441.94;;;23.55;100.00
18988;BME280;5494;51.796;10.952;2023-08-20T00:33:46;99441.25;;;23.53;100.00
18988;BME280;5494;51.796;10.952;2023-08-20T00:36:32;99444.38;;;23.49;100.00
18988;BME280;5494;51.796;10.952;2023-08-20T00:39:00;99434.97;;;23.45;100.00
18988;BME280;5494;51.796;10.952;2023-08-20T00:41:28;99447.84;;;23.49;100.00
18988;BME280;5494;51.796;10.952;2023-08-20T00:43:57;99440.97;;;23.47;100.00
18988;BME280;5494;51.796;10.952;2023-08-20T00:46:26;99447.25;;;23.46;100.00
18988;BME280;5494;51.796;10.952;2023-08-20T00:48:56;99453.31;;;23.38;100.00
18988;BME280;5494;51.796;10.952;2023-08-20T00:51:25;99441.63;;;23.31;100.00
18988;BME280;5494;51.796;10.952;2023-08-20T00:53:53;99454.75;;;23.33;100.00
18988;BME280;5494;51.796;10.952;2023-08-20T00:56:22;99443.28;;;23.32;100.00
18988;BME280;5494;51.796;10.952;2023-08-20T00:58:50;99449.53;;;23.41;100.00
18988;BME280;5494;51.796;10.952;2023-08-20T01:01:18;99444.13;;;23.33;100.00
18988;BME280;5494;51.796;10.952;2023-08-20T01:03:47;99453.22;;;23.30;100.00
18988;BME280;5494;51.796;10.952;2023-08-20T01:06:39;99455.19;;;23.28;100.00
18988;BME280;5494;51.796;10.952;2023-08-20T01:09:27;99462.44;;;23.26;100.00
18988;BME280;5494;51.796;10.952;2023-08-20T01:12:00;99463.88;;;23.21;100.00
18988;BME280;5494;51.796;10.952;2023-08-20T01:14:30;99462.06;;;23.21;100.00
18988;BME280;5494;51.796;10.952;2023-08-20T01:16:59;99458.84;;;23.17;100.00
18988;BME280;5494;51.796;10.952;2023-08-20T01:19:27;99465.56;;;23.12;100.00
18988;BME280;5494;51.796;10.952;2023-08-20T01:25:11;99471.75;;;23.03;100.00
18988;BME280;5494;51.796;10.952;2023-08-20T01:27:56;99463.50;;;23.06;100.00
18988;BME280;5494;51.796;10.952;2023-08-20T01:30:28;99462.53;;;23.07;100.00
18988;BME280;5494;51.796;10.952;2023-08-20T01:32:58;99456.84;;;23.02;100.00
18988;BME280;5494;51.796;10.952;2023-08-20T01:35:29;99465.91;;;22.99;100.00
18988;BME280;5494;51.796;10.952;2023-08-20T01:38:03;99473.28;;;23.05;100.00
18988;BME280;5494;51.796;10.952;2023-08-20T01:40:31;99477.03;;;23.03;100.00
18988;BME280;5494;51.796;10.952;2023-08-20T01:42:59;99479.59;;;22.95;100.00
18988;BME280;5494;51.796;10.952;2023-08-20T01:45:29;99479.88;;;22.92;100.00
18988;BME280;5494;51.796;10.952;2023-08-20T01:47:58;99483.38;;;22.92;100.00
18988;BME280;5494;51.796;10.952;2023-08-20T01:50:26;99478.22;;;22.91;100.00
18988;BME280;5494;51.796;10.952;2023-08-20T01:52:54;99482.53;;;22.92;100.00
18988;BME280;5494;51.796;10.952;2023-08-20T01:55:22;99487.84;;;22.92;100.00
18988;BME280;5494;51.796;10.952;2023-08-20T01:57:51;99494.69;;;22.85;100.00
18988;BME280;5494;51.796;10.952;2023-08-20T02:00:19;99500.97;;;22.84;100.00
18988;BME280;5494;51.796;10.952;2023-08-20T02:02:48;99494.00;;;22.83;100.00
18988;BME280;5494;51.796;10.952;2023-08-20T02:05:17;99492.59;;;22.88;100.00
18988;BME280;5494;51.796;10.952;2023-08-20T02:07:45;99506.28;;;22.84;100.00
18988;BME280;5494;51.796;10.952;2023-08-20T02:10:14;99504.19;;;22.87;100.00
18988;BME280;5494;51.796;10.952;2023-08-20T02:12:42;99501.81;;;22.84;100.00
18988;BME280;5494;51.796;10.952;2023-08-20T02:15:10;99498.75;;;22.79;100.00
18988;BME280;5494;51.796;10.952;2023-08-20T02:17:39;99498.34;;;22.74;100.00
18988;BME280;5494;51.796;10.952;2023-08-20T02:20:10;99506.00;;;22.67;100.00
18988;BME280;5494;51.796;10.952;2023-08-20T02:22:38;99513.25;;;22.65;100.00
18988;BME280;5494;51.796;10.952;2023-08-20T02:25:08;99524.00;;;22.64;100.00
18988;BME280;5494;51.796;10.952;2023-08-20T02:27:36;99525.53;;;22.66;100.00
18988;BME280;5494;51.796;10.952;2023-08-20T02:30:06;99523.16;;;22.63;100.00
18988;BME280;5494;51.796;10.952;2023-08-20T02:32:36;99521.34;;;22.64;100.00
18988;BME280;5494;51.796;10.952;2023-08-20T02:35:05;99521.19;;;22.56;100.00
18988;BME280;5494;51.796;10.952;2023-08-20T02:37:35;99515.50;;;22.51;100.00
18988;BME280;5494;51.796;10.952;2023-08-20T02:40:05;99512.31;;;22.47;100.00
18988;BME280;5494;51.796;10.952;2023-08-20T02:42:35;99518.56;;;22.36;100.00
18988;BME280;5494;51.796;10.952;2023-08-20T02:45:04;99514.38;;;22.34;100.00
18988;BME280;5494;51.796;10.952;2023-08-20T02:47:32;99515.63;;;22.20;100.00
18988;BME280;5494;51.796;10.952;2023-08-20T02:50:01;99512.56;;;22.15;100.00
18988;BME280;5494;51.796;10.952;2023-08-20T02:52:31;99505.28;;;22.08;100.00
18988;BME280;5494;51.796;10.952;2023-08-20T02:55:01;99513.78;;;22.02;100.00
18988;BME280;5494;51.796;10.952;2023-08-20T02:57:30;99517.81;;;21.96;100.00
18988;BME280;5494;51.796;10.952;2023-08-20T02:59:59;99530.31;;;21.94;100.00
18988;BME280;5494;51.796;10.952;2023-08-20T03:02:27;99520.75;;;22.03;100.00
18988;BME280;5494;51.796;10.952;2023-08-20T03:04:56;99518.38;;;21.99;100.00
18988;BME280;5494;51.796;10.952;2023-08-20T03:07:24;99516.56;;;22.00;100.00
18988;BME280;5494;51.796;10.952;2023-08-20T03:09:52;99510.81;;;21.95;100.00
18988;BME280;5494;51.796;10.952;2023-08-20T03:12:22;99510.72;;;21.96;100.00
18988;BME280;5494;51.796;10.952;2023-08-20T03:14:50;99518.38;;;21.99;100.00
18988;BME280;5494;51.796;10.952;2023-08-20T03:17:18;99518.75;;;21.95;100.00
18988;BME280;5494;51.796;10.952;2023-08-20T03:19:54;99529.78;;;21.90;100.00
18988;BME280;5494;51.796;10.952;2023-08-20T03:22:24;99522.09;;;21.87;100.00
18988;BME280;5494;51.796;10.952;2023-08-20T03:24:53;99525.03;;;21.84;100.00
18988;BME280;5494;51.796;10.952;2023-08-20T03:27:23;99527.25;;;21.89;100.00
18988;BME280;5494;51.796;10.952;2023-08-20T03:29:52;99524.28;;;21.73;100.00
18988;BME280;5494;51.796;10.952;2023-08-20T03:32:20;99519.69;;;21.75;100.00
18988;BME280;5494;51.796;10.952;2023-08-20T03:34:49;99527.50;;;21.76;100.00
18988;BME280;5494;51.796;10.952;2023-08-20T03:37:18;99521.63;;;21.63;100.00
18988;BME280;5494;51.796;10.952;2023-08-20T03:39:46;99525.78;;;21.66;100.00
18988;BME280;5494;51.796;10.952;2023-08-20T03:42:14;99528.72;;;21.72;100.00
18988;BME280;5494;51.796;10.952;2023-08-20T03:44:44;99527.75;;;21.73;100.00
18988;BME280;5494;51.796;10.952;2023-08-20T03:47:12;99525.53;;;21.78;100.00
18988;BME280;5494;51.796;10.952;2023-08-20T03:49:41;99525.28;;;21.81;100.00
18988;BME280;5494;51.796;10.952;2023-08-20T03:52:09;99528.34;;;21.77;100.00
18988;BME280;5494;51.796;10.952;2023-08-20T03:54:37;99528.47;;;21.75;100.00
18988;BME280;5494;51.796;10.952;2023-08-20T03:57:05;99519.44;;;21.78;100.00
18988;BME280;5494;51.796;10.952;2023-08-20T03:59:33;99525.41;;;21.80;100.00
18988;BME280;5494;51.796;10.952;2023-08-20T04:02:04;99529.44;;;21.74;100.00
18988;BME280;5494;51.796;10.952;2023-08-20T04:04:32;99536.84;;;21.80;100.00
18988;BME280;5494;51.796;10.952;2023-08-20T04:07:00;99534.31;;;21.79;100.00
18988;BME280;5494;51.796;10.952;2023-08-20T04:09:32;99532.94;;;21.75;100.00
18988;BME280;5494;51.796;10.952;2023-08-20T04:12:00;99538.88;;;21.67;100.00
18988;BME280;5494;51.796;10.952;2023-08-20T04:14:28;99542.25;;;21.69;100.00
18988;BME280;5494;51.796;10.952;2023-08-20T04:16:57;99541.28;;;21.70;100.00
18988;BME280;5494;51.796;10.952;2023-08-20T04:19:26;99543.38;;;21.76;100.00
18988;BME280;5494;51.796;10.952;2023-08-20T04:21:54;99540.31;;;21.81;100.00
18988;BME280;5494;51.796;10.952;2023-08-20T04:24:22;99541.47;;;21.88;100.00
18988;BME280;5494;51.796;10.952;2023-08-20T04:26:50;99557.63;;;21.94;100.00
18988;BME280;5494;51.796;10.952;2023-08-20T04:29:24;99545.97;;;21.97;100.00
18988;BME280;5494;51.796;10.952;2023-08-20T04:31:54;99550.19;;;22.09;100.00
18988;BME280;5494;51.796;10.952;2023-08-20T04:34:22;99554.78;;;22.07;100.00
18988;BME280;5494;51.796;10.952;2023-08-20T04:36:53;99554.50;;;22.10;100.00
18988;BME280;5494;51.796;10.952;2023-08-20T04:39:21;99555.78;;;22.16;100.00
18988;BME280;5494;51.796;10.952;2023-08-20T04:41:52;99560.25;;;22.25;100.00
18988;BME280;5494;51.796;10.952;2023-08-20T04:44:21;99557.31;;;22.28;100.00
18988;BME280;5494;51.796;10.952;2023-08-20T04:46:50;99561.78;;;22.37;100.00
18988;BME280;5494;51.796;10.952;2023-08-20T04:49:18;99567.94;;;22.37;100.00
18988;BME280;5494;51.796;10.952;2023-08-20T04:51:46;99562.75;;;22.36;100.00
18988;BME280;5494;51.796;10.952;2023-08-20T04:54:16;99562.75;;;22.36;100.00
18988;BME280;5494;51.796;10.952;2023-08-20T04:56:45;99569.03;;;22.35;100.00
18988;BME280;5494;51.796;10.952;2023-08-20T04:59:13;99571.84;;;22.43;100.00
18988;BME280;5494;51.796;10.952;2023-08-20T05:01:51;99571.56;;;22.56;100.00
18988;BME280;5494;51.796;10.952;2023-08-20T05:04:33;99570.47;;;22.58;100.00
18988;BME280;5494;51.796;10.952;2023-08-20T05:07:02;99576.47;;;22.60;100.00
18988;BME280;5494;51.796;10.952;2023-08-20T05:09:32;99574.06;;;22.57;100.00
18988;BME280;5494;51.796;10.952;2023-08-20T05:12:00;99582.84;;;22.48;100.00
18988;BME280;5494;51.796;10.952;2023-08-20T05:14:29;99583.56;;;22.50;100.00
18988;BME280;5494;51.796;10.952;2023-08-20T05:16:58;99584.81;;;22.46;100.00
18988;BME280;5494;51.796;10.952;2023-08-20T05:19:26;99585.22;;;22.32;100.00
18988;BME280;5494;51.796;10.952;2023-08-20T05:21:54;99595.00;;;22.51;100.00
18988;BME280;5494;51.796;10.952;2023-08-20T05:24:26;99589.28;;;22.55;100.00
18988;BME280;5494;51.796;10.952;2023-08-20T05:27:07;99599.03;;;22.55;100.00
18988;BME280;5494;51.796;10.952;2023-08-20T05:29:37;99597.94;;;22.67;100.00
18988;BME280;5494;51.796;10.952;2023-08-20T05:32:05;99603.56;;;22.73;100.00
18988;BME280;5494;51.796;10.952;2023-08-20T05:34:34;99602.72;;;22.73;100.00
18988;BME280;5494;51.796;10.952;2023-08-20T05:37:02;99607.72;;;22.76;100.00
18988;BME280;5494;51.796;10.952;2023-08-20T05:39:41;99610.78;;;22.71;100.00
18988;BME280;5494;51.796;10.952;2023-08-20T05:42:11;99614.41;;;22.70;100.00
18988;BME280;5494;51.796;10.952;2023-08-20T05:44:43;99615.97;;;22.83;100.00
18988;BME280;5494;51.796;10.952;2023-08-20T05:47:15;99616.66;;;22.85;100.00
18988;BME280;5494;51.796;10.952;2023-08-20T05:49:43;99615.56;;;22.87;100.00
18988;BME280;5494;51.796;10.952;2023-08-20T05:52:12;99615.44;;;22.89;100.00
18988;BME280;5494;51.796;10.952;2023-08-20T05:54:42;99618.13;;;22.49;100.00
18988;BME280;5494;51.796;10.952;2023-08-20T05:57:11;99613.81;;;22.48;100.00
18988;BME280;5494;51.796;10.952;2023-08-20T05:59:41;99625.16;;;22.59;100.00
18988;BME280;5494;51.796;10.952;2023-08-20T06:02:09;99616.91;;;22.72;100.00
18988;BME280;5494;51.796;10.952;2023-08-20T06:04:37;99615.78;;;22.65;100.00
18988;BME280;5494;51.796;10.952;2023-08-20T06:07:05;99611.22;;;22.76;100.00
18988;BME280;5494;51.796;10.952;2023-08-20T06:09:33;99618.91;;;22.99;100.00
18988;BME280;5494;51.796;10.952;2023-08-20T06:12:01;99619.69;;;23.47;100.00
18988;BME280;5494;51.796;10.952;2023-08-20T06:14:31;99622.69;;;23.72;100.00
18988;BME280;5494;51.796;10.952;2023-08-20T06:16:59;99625.44;;;23.80;100.00
18988;BME280;5494;51.796;10.952;2023-08-20T06:19:27;99626.16;;;23.72;100.00
18988;BME280;5494;51.796;10.952;2023-08-20T06:21:56;99627.94;;;23.81;100.00
18988;BME280;5494;51.796;10.952;2023-08-20T06:24:24;99631.81;;;23.97;100.00
18988;BME280;5494;51.796;10.952;2023-08-20T06:26:52;99631.28;;;24.20;100.00
18988;BME280;5494;51.796;10.952;2023-08-20T06:29:20;99638.47;;;24.38;100.00
18988;BME280;5494;51.796;10.952;2023-08-20T06:31:50;99643.38;;;24.60;100.00
18988;BME280;5494;51.796;10.952;2023-08-20T06:34:18;99639.66;;;24.88;100.00
18988;BME280;5494;51.796;10.952;2023-08-20T06:36:47;99649.56;;;24.96;100.00
18988;BME280;5494;51.796;10.952;2023-08-20T06:39:15;99647.72;;;24.96;100.00
18988;BME280;5494;51.796;10.952;2023-08-20T06:41:45;99651.41;;;24.95;100.00
18988;BME280;5494;51.796;10.952;2023-08-20T06:44:19;99642.25;;;24.80;100.00
18988;BME280;5494;51.796;10.952;2023-08-20T06:46:47;99656.19;;;24.47;100.00
18988;BME280;5494;51.796;10.952;2023-08-20T06:49:17;99662.16;;;24.31;100.00
18988;BME280;5494;51.796;10.952;2023-08-20T06:51:45;99664.75;;;24.13;100.00
18988;BME280;5494;51.796;10.952;2023-08-20T06:54:14;99665.94;;;23.91;100.00
18988;BME280;5494;51.796;10.952;2023-08-20T06:56:43;99674.16;;;23.98;100.00
18988;BME280;5494;51.796;10.952;2023-08-20T06:59:13;99666.19;;;23.98;100.00
18988;BME280;5494;51.796;10.952;2023-08-20T07:01:41;99671.47;;;24.08;100.00
18988;BME280;5494;51.796;10.952;2023-08-20T07:04:09;99674.16;;;23.98;100.00
18988;BME280;5494;51.796;10.952;2023-08-20T07:06:39;99667.94;;;23.80;100.00
18988;BME280;5494;51.796;10.952;2023-08-20T07:09:07;99670.06;;;24.13;100.00
18988;BME280;5494;51.796;10.952;2023-08-20T07:11:35;99665.25;;;24.71;100.00
18988;BME280;5494;51.796;10.952;2023-08-20T07:14:04;99680.38;;;25.60;98.47
18988;BME280;5494;51.796;10.952;2023-08-20T07:16:32;99670.31;;;26.39;84.94
18988;BME280;5494;51.796;10.952;2023-08-20T07:19:00;99665.13;;;27.20;74.27
18988;BME280;5494;51.796;10.952;2023-08-20T07:21:28;99662.97;;;27.40;71.43
18988;BME280;5494;51.796;10.952;2023-08-20T07:23:57;99652.75;;;27.76;64.72
18988;BME280;5494;51.796;10.952;2023-08-20T07:26:26;99660.81;;;27.35;67.21
18988;BME280;5494;51.796;10.952;2023-08-20T07:28:54;99653.31;;;27.23;70.42
18988;BME280;5494;51.796;10.952;2023-08-20T07:31:26;99656.28;;;27.12;64.30
18988;BME280;5494;51.796;10.952;2023-08-20T07:33:56;99655.50;;;28.07;60.37
18988;BME280;5494;51.796;10.952;2023-08-20T07:36:29;99645.34;;;28.64;56.39
18988;BME280;5494;51.796;10.952;2023-08-20T07:39:00;99649.50;;;29.58;53.57
18988;BME280;5494;51.796;10.952;2023-08-20T07:41:29;99631.28;;;30.41;48.51
18988;BME280;5494;51.796;10.952;2023-08-20T07:43:57;99633.03;;;30.91;46.26
18988;BME280;5494;51.796;10.952;2023-08-20T07:46:26;99626.09;;;30.97;45.55
18988;BME280;5494;51.796;10.952;2023-08-20T07:48:54;99622.22;;;30.42;47.92
18988;BME280;5494;51.796;10.952;2023-08-20T07:51:22;99626.53;;;31.01;47.28
18988;BME280;5494;51.796;10.952;2023-08-20T07:53:50;99626.63;;;31.91;44.44
18988;BME280;5494;51.796;10.952;2023-08-20T07:56:20;99638.41;;;32.31;43.73
18988;BME280;5494;51.796;10.952;2023-08-20T07:58:48;99625.72;;;32.79;43.26
18988;BME280;5494;51.796;10.952;2023-08-20T08:01:16;99625.13;;;33.16;40.74
18988;BME280;5494;51.796;10.952;2023-08-20T08:03:44;99630.63;;;32.49;42.82
18988;BME280;5494;51.796;10.952;2023-08-20T08:06:12;99626.66;;;31.63;44.60
18988;BME280;5494;51.796;10.952;2023-08-20T08:08:43;99624.19;;;30.91;46.04
18988;BME280;5494;51.796;10.952;2023-08-20T08:11:11;99621.25;;;31.07;44.74
18988;BME280;5494;51.796;10.952;2023-08-20T08:13:41;99616.53;;;31.09;45.49
18988;BME280;5494;51.796;10.952;2023-08-20T08:16:09;99625.22;;;32.01;43.06
18988;BME280;5494;51.796;10.952;2023-08-20T08:18:37;99619.75;;;32.97;41.04
18988;BME280;5494;51.796;10.952;2023-08-20T08:21:05;99621.81;;;33.60;40.71
18988;BME280;5494;51.796;10.952;2023-08-20T08:23:33;99622.66;;;33.48;40.16
18988;BME280;5494;51.796;10.952;2023-08-20T08:26:02;99618.59;;;34.03;38.68
18988;BME280;5494;51.796;10.952;2023-08-20T08:28:30;99607.28;;;32.69;39.79
18988;BME280;5494;51.796;10.952;2023-08-20T08:30:59;99615.72;;;32.05;42.23
18988;BME280;5494;51.796;10.952;2023-08-20T08:33:27;99619.31;;;31.78;42.88
18988;BME280;5494;51.796;10.952;2023-08-20T08:35:55;99619.28;;;31.72;43.52
18988;BME280;5494;51.796;10.952;2023-08-20T08:38:23;99611.16;;;31.65;44.73
18988;BME280;5494;51.796;10.952;2023-08-20T08:40:55;99611.34;;;32.04;43.82
18988;BME280;5494;51.796;10.952;2023-08-20T08:43:23;99618.31;;;31.58;44.15
18988;BME280;5494;51.796;10.952;2023-08-20T08:45:55;99622.13;;;31.14;46.01
18988;BME280;5494;51.796;10.952;2023-08-20T08:48:25;99614.31;;;31.75;45.16
18988;BME280;5494;51.796;10.952;2023-08-20T08:50:54;99611.66;;;32.83;41.29
18988;BME280;5494;51.796;10.952;2023-08-20T08:53:24;99624.50;;;33.47;39.83
18988;BME280;5494;51.796;10.952;2023-08-20T08:55:52;99618.53;;;33.45;39.91
18988;BME280;5494;51.796;10.952;2023-08-20T08:58:21;99623.50;;;33.42;40.23
18988;BME280;5494;51.796;10.952;2023-08-20T09:00:49;99617.69;;;33.18;40.73
18988;BME280;5494;51.796;10.952;2023-08-20T09:03:17;99629.69;;;33.03;41.70
18988;BME280;5494;51.796;10.952;2023-08-20T09:05:47;99634.44;;;32.88;43.94
18988;BME280;5494;51.796;10.952;2023-08-20T09:08:19;99628.47;;;33.18;43.95
18988;BME280;5494;51.796;10.952;2023-08-20T09:10:50;99633.69;;;33.40;41.31
18988;BME280;5494;51.796;10.952;2023-08-20T09:13:23;99645.06;;;33.35;40.46
18988;BME280;5494;51.796;10.952;2023-08-20T09:15:53;99640.16;;;34.23;39.03
18988;BME280;5494;51.796;10.952;2023-08-20T09:18:21;99635.47;;;33.92;39.34
18988;BME280;5494;51.796;10.952;2023-08-20T09:20:51;99637.94;;;34.00;38.74
18988;BME280;5494;51.796;10.952;2023-08-20T09:23:19;99639.03;;;33.73;39.64
18988;BME280;5494;51.796;10.952;2023-08-20T09:25:47;99626.72;;;33.96;38.83
18988;BME280;5494;51.796;10.952;2023-08-20T09:28:15;99623.66;;;34.37;38.21
18988;BME280;5494;51.796;10.952;2023-08-20T09:30:56;99620.00;;;34.19;37.24
18988;BME280;5494;51.796;10.952;2023-08-20T09:33:24;99627.84;;;33.49;39.48
18988;BME280;5494;51.796;10.952;2023-08-20T09:35:54;99625.34;;;33.81;39.31
18988;BME280;5494;51.796;10.952;2023-08-20T09:38:24;99628.63;;;33.70;39.68
18988;BME280;5494;51.796;10.952;2023-08-20T09:40:54;99619.50;;;33.71;39.68
18988;BME280;5494;51.796;10.952;2023-08-20T09:43:25;99614.97;;;33.58;41.14
18988;BME280;5494;51.796;10.952;2023-08-20T09:45:55;99608.38;;;33.21;40.82
18988;BME280;5494;51.796;10.952;2023-08-20T09:48:28;99605.44;;;33.03;41.06
18988;BME280;5494;51.796;10.952;2023-08-20T09:51:09;99606.91;;;33.05;41.15
18988;BME280;5494;51.796;10.952;2023-08-20T09:53:46;99613.56;;;33.22;40.85
18988;BME280;5494;51.796;10.952;2023-08-20T09:56:25;99619.94;;;33.54;41.08
18988;BME280;5494;51.796;10.952;2023-08-20T09:58:57;99617.28;;;33.28;41.31
18988;BME280;5494;51.796;10.952;2023-08-20T10:01:26;99612.22;;;32.12;43.53
18988;BME280;5494;51.796;10.952;2023-08-20T10:03:55;99613.94;;;31.50;45.75
18988;BME280;5494;51.796;10.952;2023-08-20T10:06:26;99613.34;;;32.30;43.76
18988;BME280;5494;51.796;10.952;2023-08-20T10:08:54;99610.13;;;32.61;42.47
18988;BME280;5494;51.796;10.952;2023-08-20T10:11:22;99607.09;;;32.17;44.38
18988;BME280;5494;51.796;10.952;2023-08-20T10:13:51;99608.19;;;30.83;46.73
18988;BME280;5494;51.796;10.952;2023-08-20T10:16:20;99611.50;;;30.85;47.76
18988;BME280;5494;51.796;10.952;2023-08-20T10:18:51;99602.31;;;31.71;44.72
18988;BME280;5494;51.796;10.952;2023-08-20T10:21:26;99599.72;;;32.38;45.04
18988;BME280;5494;51.796;10.952;2023-08-20T10:23:55;99597.28;;;32.57;44.63
18988;BME280;5494;51.796;10.952;2023-08-20T10:26:23;99601.75;;;31.54;45.88
18988;BME280;5494;51.796;10.952;2023-08-20T10:29:37;99605.50;;;30.26;49.01
18988;BME280;5494;51.796;10.952;2023-08-20T10:32:12;99601.28;;;30.95;48.78
18988;BME280;5494;51.796;10.952;2023-08-20T10:34:44;99603.22;;;31.29;47.15
18988;BME280;5494;51.796;10.952;2023-08-20T10:37:27;99594.63;;;31.40;47.70
18988;BME280;5494;51.796;10.952;2023-08-20T10:39:56;99595.16;;;31.57;46.91
18988;BME280;5494;51.796;10.952;2023-08-20T10:42:28;99590.94;;;31.48;45.62
18988;BME280;5494;51.796;10.952;2023-08-20T10:44:58;99595.44;;;31.41;47.31
18988;BME280;5494;51.796;10.952;2023-08-20T10:47:42;99589.28;;;30.91;47.62
18988;BME280;5494;51.796;10.952;2023-08-20T10:50:13;99588.66;;;30.17;50.94
18988;BME280;5494;51.796;10.952;2023-08-20T10:52:48;99594.13;;;30.09;50.55
18988;BME280;5494;51.796;10.952;2023-08-20T10:55:22;99583.97;;;29.90;53.88
18988;BME280;5494;51.796;10.952;2023-08-20T10:57:55;99585.84;;;29.45;53.74
18988;BME280;5494;51.796;10.952;2023-08-20T11:00:24;99593.03;;;29.07;56.22
18988;BME280;5494;51.796;10.952;2023-08-20T11:02:52;99583.19;;;29.22;55.38
18988;BME280;5494;51.796;10.952;2023-08-20T11:05:21;99579.25;;;29.77;53.93
18988;BME280;5494;51.796;10.952;2023-08-20T11:07:51;99571.38;;;30.20;52.24
18988;BME280;5494;51.796;10.952;2023-08-20T11:10:19;99579.72;;;29.81;52.33
18988;BME280;5494;51.796;10.952;2023-08-20T11:12:48;99575.94;;;29.46;54.19
18988;BME280;5494;51.796;10.952;2023-08-20T11:15:16;99580.91;;;28.96;56.59
18988;BME280;5494;51.796;10.952;2023-08-20T11:17:46;99582.31;;;29.07;57.50
18988;BME280;5494;51.796;10.952;2023-08-20T11:20:17;99577.91;;;29.29;56.45
18988;BME280;5494;51.796;10.952;2023-08-20T11:22:45;99573.06;;;29.47;56.25
18988;BME280;5494;51.796;10.952;2023-08-20T11:25:15;99576.63;;;29.25;56.95
18988;BME280;5494;51.796;10.952;2023-08-20T11:27:43;99576.06;;;29.15;56.67
18988;BME280;5494;51.796;10.952;2023-08-20T11:30:12;99582.81;;;28.88;59.47
18988;BME280;5494;51.796;10.952;2023-08-20T11:32:41;99575.75;;;28.95;58.56
18988;BME280;5494;51.796;10.952;2023-08-20T11:35:10;99567.25;;;29.58;56.38
18988;BME280;5494;51.796;10.952;2023-08-20T11:37:39;99564.75;;;29.71;56.27
18988;BME280;5494;51.796;10.952;2023-08-20T11:40:09;99563.94;;;30.00;53.47
18988;BME280;5494;51.796;10.952;2023-08-20T11:42:38;99573.16;;;29.83;55.09
18988;BME280;5494;51.796;10.952;2023-08-20T11:45:10;99569.19;;;29.35;56.50
18988;BME280;5494;51.796;10.952;2023-08-20T11:47:39;99567.91;;;29.08;57.96
18988;BME280;5494;51.796;10.952;2023-08-20T11:50:08;99569.75;;;29.08;57.07
18988;BME280;5494;51.796;10.952;2023-08-20T11:52:37;99566.94;;;28.41;60.75
18988;BME280;5494;51.796;10.952;2023-08-20T11:55:07;99570.19;;;28.51;62.00
18988;BME280;5494;51.796;10.952;2023-08-20T11:57:38;99573.81;;;28.58;62.23
18988;BME280;5494;51.796;10.952;2023-08-20T12:00:07;99564.59;;;28.60;62.35
18988;BME280;5494;51.796;10.952;2023-08-20T12:02:41;99566.97;;;28.33;64.60
18988;BME280;5494;51.796;10.952;2023-08-20T12:05:09;99568.31;;;28.29;64.49
18988;BME280;5494;51.796;10.952;2023-08-20T12:07:37;99567.56;;;28.43;62.67
18988;BME280;5494;51.796;10.952;2023-08-20T12:10:20;99563.81;;;28.97;60.28
18988;BME280;5494;51.796;10.952;2023-08-20T12:12:51;99565.44;;;29.21;58.76
18988;BME280;5494;51.796;10.952;2023-08-20T12:15:20;99567.50;;;28.51;61.27
18988;BME280;5494;51.796;10.952;2023-08-20T12:17:59;99561.44;;;28.57;62.99
18988;BME280;5494;51.796;10.952;2023-08-20T12:20:29;99562.78;;;28.61;60.78
18988;BME280;5494;51.796;10.952;2023-08-20T12:23:00;99555.91;;;28.58;62.55
18988;BME280;5494;51.796;10.952;2023-08-20T12:25:31;99553.53;;;28.86;60.12
18988;BME280;5494;51.796;10.952;2023-08-20T12:28:03;99548.78;;;28.96;63.13
18988;BME280;5494;51.796;10.952;2023-08-20T12:30:32;99552.09;;;28.98;60.41
18988;BME280;5494;51.796;10.952;2023-08-20T12:33:05;99549.78;;;28.73;62.50
18988;BME280;5494;51.796;10.952;2023-08-20T12:35:34;99549.78;;;28.50;64.03
18988;BME280;5494;51.796;10.952;2023-08-20T12:38:03;99553.34;;;28.65;63.42
18988;BME280;5494;51.796;10.952;2023-08-20T12:40:32;99553.09;;;29.35;60.77
18988;BME280;5494;51.796;10.952;2023-08-20T12:43:01;99551.63;;;29.76;57.85
18988;BME280;5494;51.796;10.952;2023-08-20T12:45:30;99552.53;;;29.98;56.73
18988;BME280;5494;51.796;10.952;2023-08-20T12:47:58;99556.06;;;29.99;55.79
18988;BME280;5494;51.796;10.952;2023-08-20T12:50:29;99552.28;;;29.34;58.32
18988;BME280;5494;51.796;10.952;2023-08-20T12:52:57;99553.09;;;28.97;59.35
18988;BME280;5494;51.796;10.952;2023-08-20T12:55:25;99552.59;;;29.17;58.93
18988;BME280;5494;51.796;10.952;2023-08-20T12:57:56;99556.84;;;29.26;58.75
18988;BME280;5494;51.796;10.952;2023-08-20T13:00:26;99549.63;;;29.26;59.62
18988;BME280;5494;51.796;10.952;2023-08-20T13:02:56;99550.44;;;28.97;60.60
18988;BME280;5494;51.796;10.952;2023-08-20T13:05:26;99559.19;;;28.69;62.81
18988;BME280;5494;51.796;10.952;2023-08-20T13:07:55;99559.53;;;28.43;62.73
18988;BME280;5494;51.796;10.952;2023-08-20T13:10:24;99545.19;;;28.36;62.54
18988;BME280;5494;51.796;10.952;2023-08-20T13:13:01;99548.97;;;28.27;64.22